METAR AND TAF INFORMATION
METAR FOR UAOO
ADDS - METARS form results

(2120 UTC 26 March 2019)
Data provider http://aviationweather.gov/metar/data/
 
METAR text: UAOO 262100Z 35003MPS 0900 R05/1900 FG VV002 12/11 Q1013 R05/290060 NOSIG RMK QBB060 QFE748/0998
Conditions at: UAOO (KZYL-ORDA , KZ) observed 2100 UTC 26 March 2019
Temperature: 12.0°C (54°F)
Dewpoint: 11.0°C (52°F) [RH = 94%]
Pressure (altimeter): 29.91 inches Hg (1013.0 mb)
Winds: from the N (350 degrees) at 7 MPH (6 knots; 3.1 m/s)
Visibility: 0.56 miles (0.90 km)
Ceiling: indefinite ceiling with vertical visibility of 200 feet AGL
Clouds: obscured sky
Weather: FG  (fog)

METAR text: UAOO 262030Z 01003MPS 0900 R05/1900 FG VV002 12/11 Q1013 R05/290060 NOSIG RMK QBB060 QFE748/0998
Conditions at: UAOO (KZYL-ORDA , KZ) observed 2030 UTC 26 March 2019
Temperature: 12.0°C (54°F)
Dewpoint: 11.0°C (52°F) [RH = 94%]
Pressure (altimeter): 29.91 inches Hg (1013.0 mb)
Winds: from the N (10 degrees) at 7 MPH (6 knots; 3.1 m/s)
Visibility: 0.56 miles (0.90 km)
Ceiling: indefinite ceiling with vertical visibility of 200 feet AGL
Clouds: obscured sky
Weather: FG  (fog)

Forecast for: UAOO (KZYL-ORDA , KZ)
Text: TAF UAOO 262000Z 2621/2706 06004MPS 3000 BR OVC003
Forecast period: 2100 UTC 26 March 2019 to 0600 UTC 27 March 2019
Forecast type: FROM: standard forecast or significant change
Winds: from the ENE (60 degrees) at 9 MPH (8 knots; 4.1 m/s)
Visibility: 1.86 miles (2.99 km)
Ceiling: 300 feet AGL
Clouds: overcast cloud deck at 300 feet AGL
Weather: BR  (mist)
Text: TEMPO 2621/2703 34003MPS 0500 FG VV002
Forecast period: 2100 UTC 26 March 2019 to 0300 UTC 27 March 2019
Forecast type: TEMPORARY: The following changes expected for less than half the time period
Winds: from the NNW (340 degrees) at 7 MPH (6 knots; 3.1 m/s)
Visibility: 0.31 miles (0.50 km)
Ceiling: indefinite ceiling with vertical visibility of 200 feet AGL
Clouds: obscured sky
Weather: FG  (fog)

 AIRPORT MAP

 RUNWAY INFORMATION

 AIRPORT FREQUENCIES

 AIRPORT NEAR NAVIGATION AIDS



2018 Air Astana Virtual Airline